Terminal Aerodrome Forecast
Issued by NWS

Home | Current Version | Previous Version | Text Only | Print | Product List | Glossary On
Versions: 1 2 3 4 5 6 7 8 9 10 11 12 13 14 15 16 17 18 19 20 21 22 23 24 25 26 27 28
000
FTUS45 KBOI 192211 CCA
TAFJER
TAF COR
KJER 192211Z 1918/2018 14007KT P6SM VCSH SCT040 BKN060
     FM191900 25010G20KT P6SM -SHRA OVC040
     FM200300 09008KT P6SM BKN050
     FM201400 05015KT P6SM -SHRA OVC050
      AMD NOT SKED=

USA.gov is the U.S. government's official web portal to all federal, state and local government web resources and services.